Time;durP1;ratioP1;P1;durP2;ratioP2;P2;SDS_P1;SDS_P2;PMS_P1;PMS_P2;Temp;Humidity;BMP_temperature;BMP_pressure;BME280_temperature;BME280_humidity;BME280_pressure;Samples;Min_cycle;Max_cycle;Signal;HPM_P1;HPM_P2
2023/04/22 00:02:13;;;;;;;0.50;0.40;;;8.50;99.90;;;;;;5053418;28;20218;-80
2023/04/22 00:04:41;;;;;;;0.65;0.65;;;8.50;99.90;;;;;;5053311;28;20285;-79
2023/04/22 00:07:09;;;;;;;0.50;0.40;;;8.40;99.90;;;;;;5053689;28;20199;-79
2023/04/22 00:09:36;;;;;;;0.50;0.40;;;8.40;99.90;;;;;;5052973;28;20273;-79
2023/04/22 00:12:03;;;;;;;0.50;0.40;;;8.40;99.90;;;;;;5053256;28;20282;-79
2023/04/22 00:14:29;;;;;;;0.50;0.40;;;8.40;99.90;;;;;;5053235;28;20565;-79
2023/04/22 00:16:57;;;;;;;0.50;0.40;;;8.50;99.90;;;;;;5053158;28;20214;-79
2023/04/22 00:19:24;;;;;;;0.50;0.40;;;8.50;99.90;;;;;;5053206;28;20226;-79
2023/04/22 00:21:51;;;;;;;0.50;0.40;;;8.50;99.90;;;;;;5056621;28;20593;-79
2023/04/22 00:24:19;;;;;;;0.50;0.40;;;8.50;99.90;;;;;;5057595;28;20237;-79
2023/04/22 00:26:46;;;;;;;0.60;0.50;;;8.50;99.90;;;;;;5049417;28;20226;-80
2023/04/22 00:29:13;;;;;;;0.50;0.40;;;8.50;99.90;;;;;;5056577;28;20223;-79
2023/04/22 00:31:40;;;;;;;12.07;11.50;;;8.60;99.90;;;;;;5056515;28;20282;-79
2023/04/22 00:34:06;;;;;;;0.50;0.40;;;8.50;99.90;;;;;;5056618;28;20234;-79
2023/04/22 00:36:33;;;;;;;0.60;0.60;;;8.50;99.90;;;;;;5056787;28;20221;-79
2023/04/22 00:39:00;;;;;;;0.50;0.40;;;8.50;99.90;;;;;;5108674;22;20198;-79
2023/04/22 00:41:29;;;;;;;0.50;0.40;;;8.50;99.90;;;;;;5054043;28;20209;-79
2023/04/22 00:43:58;;;;;;;0.80;0.40;;;8.60;99.90;;;;;;5061201;28;20659;-79
2023/04/22 00:46:25;;;;;;;0.50;0.40;;;8.60;99.90;;;;;;5063421;28;20203;-79
2023/04/22 00:48:52;;;;;;;0.50;0.40;;;8.60;99.90;;;;;;5066067;28;20284;-79
2023/04/22 00:51:21;;;;;;;0.98;0.98;;;8.70;99.90;;;;;;5074070;28;20194;-79
2023/04/22 00:53:48;;;;;;;2.45;2.35;;;8.70;99.90;;;;;;5057981;28;20232;-80
2023/04/22 00:56:15;;;;;;;0.50;0.40;;;8.70;99.90;;;;;;5074274;28;20214;-79
2023/04/22 00:58:44;;;;;;;1.75;1.75;;;8.70;99.90;;;;;;5073653;28;20204;-78
2023/04/22 01:01:11;;;;;;;0.50;0.40;;;8.70;99.90;;;;;;5074437;28;20198;-80
2023/04/22 01:03:40;;;;;;;2.05;1.95;;;8.80;99.90;;;;;;5074503;28;20198;-79
2023/04/22 01:06:07;;;;;;;0.50;0.40;;;8.80;99.90;;;;;;5074019;28;20194;-80
2023/04/22 01:08:34;;;;;;;0.50;0.40;;;8.80;99.90;;;;;;5073929;28;20688;-78
2023/04/22 01:11:02;;;;;;;0.50;0.40;;;8.80;99.90;;;;;;5074266;28;20300;-80
2023/04/22 01:13:31;;;;;;;3.25;3.05;;;8.80;99.90;;;;;;5073728;28;20200;-79
2023/04/22 01:16:01;;;;;;;0.50;0.40;;;8.80;99.90;;;;;;5074369;28;20597;-77
2023/04/22 01:18:28;;;;;;;0.50;0.40;;;8.70;99.90;;;;;;5073573;28;20197;-79
2023/04/22 01:20:55;;;;;;;0.50;0.40;;;8.70;99.90;;;;;;5073491;28;20231;-80
2023/04/22 01:23:23;;;;;;;0.50;0.40;;;8.70;99.90;;;;;;5073507;28;20202;-81
2023/04/22 01:25:50;;;;;;;0.50;0.40;;;8.70;99.90;;;;;;5057632;28;20186;-80
2023/04/22 01:28:17;;;;;;;0.50;0.40;;;8.70;99.90;;;;;;5073177;28;20687;-79
2023/04/22 01:30:44;;;;;;;0.50;0.40;;;8.70;99.90;;;;;;5072677;28;20771;-80
2023/04/22 01:33:12;;;;;;;0.50;0.40;;;8.70;99.90;;;;;;5073541;28;20201;-79
2023/04/22 01:35:40;;;;;;;0.50;0.40;;;8.80;99.90;;;;;;5072869;28;20308;-79
2023/04/22 01:38:09;;;;;;;0.50;0.40;;;8.80;99.90;;;;;;5073291;28;20198;-79
2023/04/22 01:40:38;;;;;;;0.50;0.40;;;8.80;99.90;;;;;;5072575;28;20236;-80
2023/04/22 01:43:05;;;;;;;0.50;0.40;;;8.80;99.90;;;;;;5073314;28;20197;-79
2023/04/22 01:45:32;;;;;;;0.50;0.40;;;8.90;99.90;;;;;;5072812;28;20204;-78
2023/04/22 01:47:59;;;;;;;0.50;0.35;;;8.90;99.90;;;;;;5072924;28;20293;-79
2023/04/22 01:50:25;;;;;;;0.50;0.40;;;8.90;99.90;;;;;;5072896;28;20213;-78
2023/04/22 01:52:52;;;;;;;0.50;0.40;;;8.90;99.90;;;;;;5072682;28;20190;-79
2023/04/22 01:55:19;;;;;;;0.50;0.43;;;8.80;99.90;;;;;;5073208;28;20232;-78
2023/04/22 01:57:47;;;;;;;0.50;0.40;;;8.80;99.90;;;;;;5072790;28;20210;-78
2023/04/22 02:00:14;;;;;;;1.20;1.20;;;8.80;99.90;;;;;;5073090;28;20768;-79
2023/04/22 02:02:41;;;;;;;0.50;0.40;;;8.90;99.90;;;;;;5073342;28;20724;-78
2023/04/22 02:05:09;;;;;;;0.50;0.40;;;8.80;99.90;;;;;;5073074;28;20285;-80
2023/04/22 02:07:36;;;;;;;0.50;0.30;;;8.80;99.90;;;;;;5072960;28;20281;-79
2023/04/22 02:10:03;;;;;;;0.50;0.40;;;8.90;99.90;;;;;;5073678;28;20218;-80
2023/04/22 02:12:31;;;;;;;0.50;0.40;;;8.80;99.90;;;;;;5072981;28;20194;-79
2023/04/22 02:14:59;;;;;;;0.50;0.40;;;8.80;99.90;;;;;;5073098;28;20300;-79
2023/04/22 02:17:26;;;;;;;0.50;0.40;;;8.80;99.90;;;;;;5072712;28;20297;-77
2023/04/22 02:19:53;;;;;;;0.50;0.40;;;8.80;99.90;;;;;;5073596;28;20584;-79
2023/04/22 02:22:20;;;;;;;0.50;0.40;;;8.80;99.90;;;;;;5073093;28;20194;-79
2023/04/22 02:24:47;;;;;;;0.50;0.40;;;8.80;99.90;;;;;;5073150;28;20216;-76
2023/04/22 02:27:14;;;;;;;0.50;0.40;;;8.80;99.90;;;;;;5071620;28;20281;-77
2023/04/22 02:29:41;;;;;;;0.50;0.40;;;8.80;99.90;;;;;;5070916;28;20225;-79
2023/04/22 02:32:09;;;;;;;0.50;0.40;;;8.80;99.90;;;;;;5071737;28;20194;-78
2023/04/22 02:34:36;;;;;;;0.50;0.40;;;8.90;99.90;;;;;;5071333;28;20221;-78
2023/04/22 02:37:04;;;;;;;0.50;0.40;;;8.80;99.90;;;;;;5071298;28;20214;-79
2023/04/22 02:39:31;;;;;;;0.50;0.40;;;8.90;99.90;;;;;;5070755;28;20712;-77
2023/04/22 02:41:58;;;;;;;0.50;0.40;;;8.80;99.90;;;;;;5071558;28;20206;-81
2023/04/22 02:44:24;;;;;;;0.50;0.40;;;8.80;99.90;;;;;;5072526;28;20384;-81
2023/04/22 02:46:51;;;;;;;0.50;0.40;;;8.80;99.90;;;;;;5073117;28;20281;-78
2023/04/22 02:49:19;;;;;;;0.50;0.40;;;8.80;99.90;;;;;;5073096;28;20226;-81
2023/04/22 02:51:46;;;;;;;0.50;0.40;;;8.80;99.90;;;;;;5073226;28;20288;-79
2023/04/22 02:54:13;;;;;;;0.50;0.40;;;8.80;99.90;;;;;;5073009;28;20204;-80
2023/04/22 02:56:40;;;;;;;0.50;0.40;;;8.80;99.90;;;;;;5073092;28;20775;-80
2023/04/22 02:59:06;;;;;;;1.90;0.73;;;8.80;99.90;;;;;;5072715;28;20275;-81
2023/04/22 03:01:33;;;;;;;0.50;0.40;;;8.90;99.90;;;;;;5073220;28;20194;-79
2023/04/22 03:04:00;;;;;;;0.50;0.40;;;8.90;99.90;;;;;;5073777;28;20202;-81
2023/04/22 03:06:28;;;;;;;0.50;0.40;;;8.80;99.90;;;;;;5073281;28;20219;-80
2023/04/22 03:08:55;;;;;;;0.50;0.40;;;8.80;99.90;;;;;;5065761;28;20194;-80
2023/04/22 03:11:22;;;;;;;0.50;0.40;;;8.80;99.90;;;;;;5073904;28;20251;-80
2023/04/22 03:13:49;;;;;;;0.50;0.40;;;8.80;99.90;;;;;;5073427;28;20350;-80
2023/04/22 03:16:16;;;;;;;0.50;0.40;;;8.80;99.90;;;;;;5088718;28;20278;-81
2023/04/22 03:18:43;;;;;;;0.50;0.40;;;8.80;99.90;;;;;;5093961;28;20210;-81
2023/04/22 03:21:10;;;;;;;0.50;0.40;;;8.80;99.90;;;;;;5094944;28;20201;-82
2023/04/22 03:23:38;;;;;;;0.50;0.38;;;8.80;99.90;;;;;;5094549;28;20188;-80
2023/04/22 03:26:05;;;;;;;0.50;0.40;;;8.70;99.90;;;;;;5073341;28;20198;-80
2023/04/22 03:28:32;;;;;;;0.50;0.40;;;8.80;99.90;;;;;;5072680;28;20234;-81
2023/04/22 03:30:59;;;;;;;0.50;0.40;;;8.80;99.90;;;;;;5072726;28;20312;-81
2023/04/22 03:33:26;;;;;;;0.50;0.40;;;8.80;99.90;;;;;;5072752;28;20220;-81
2023/04/22 03:35:53;;;;;;;2.35;1.90;;;8.80;99.90;;;;;;5075179;28;20265;-79
2023/04/22 03:38:20;;;;;;;0.50;0.40;;;8.80;99.90;;;;;;5076752;28;20304;-80
2023/04/22 03:40:48;;;;;;;0.50;0.40;;;8.80;99.90;;;;;;5076883;28;20589;-80
2023/04/22 03:43:15;;;;;;;0.50;0.40;;;8.80;99.90;;;;;;5075863;28;20288;-80
2023/04/22 03:45:42;;;;;;;0.50;0.40;;;8.70;99.90;;;;;;5075580;28;20236;-81
2023/04/22 03:48:09;;;;;;;0.82;0.82;;;8.70;99.90;;;;;;5073965;28;20198;-80
2023/04/22 03:50:36;;;;;;;0.50;0.40;;;8.80;99.90;;;;;;5077371;28;20217;-79
2023/04/22 03:53:02;;;;;;;0.50;0.40;;;8.80;99.90;;;;;;5075326;28;20289;-80
2023/04/22 03:55:29;;;;;;;0.50;0.40;;;8.80;99.90;;;;;;5075591;28;20202;-80
2023/04/22 03:57:58;;;;;;;0.50;0.40;;;8.80;99.90;;;;;;5076845;28;20281;-79
2023/04/22 04:00:25;;;;;;;0.50;0.30;;;8.80;99.90;;;;;;5076846;28;20364;-80
2023/04/22 04:02:51;;;;;;;0.50;0.40;;;8.80;99.90;;;;;;5076038;28;24122;-81
2023/04/22 04:05:19;;;;;;;0.50;0.40;;;8.80;99.90;;;;;;5077062;28;20206;-79
2023/04/22 04:07:46;;;;;;;0.50;0.40;;;8.80;99.90;;;;;;5076214;28;20208;-80
2023/04/22 04:10:13;;;;;;;0.50;0.40;;;8.80;99.90;;;;;;5076661;28;20287;-80
2023/04/22 04:12:39;;;;;;;0.50;0.40;;;8.70;99.90;;;;;;5076699;28;20256;-80
2023/04/22 04:15:09;;;;;;;0.50;0.30;;;8.70;99.90;;;;;;5076829;28;20286;-80
2023/04/22 04:17:35;;;;;;;0.50;0.40;;;8.70;99.90;;;;;;5075860;28;20218;-80
2023/04/22 04:20:02;;;;;;;0.50;0.40;;;8.80;99.90;;;;;;5076287;28;20847;-80
2023/04/22 04:22:29;;;;;;;0.50;0.40;;;8.80;99.90;;;;;;5077045;28;20198;-81
2023/04/22 04:24:56;;;;;;;0.50;0.40;;;8.80;99.90;;;;;;5076121;28;20634;-80
2023/04/22 04:27:23;;;;;;;0.50;0.40;;;8.80;99.90;;;;;;5076186;28;20688;-81
2023/04/22 04:29:51;;;;;;;0.50;0.40;;;8.80;99.90;;;;;;5075231;28;20228;-80
2023/04/22 04:32:20;;;;;;;0.50;0.40;;;8.80;99.90;;;;;;5076516;28;20201;-78
2023/04/22 04:34:47;;;;;;;0.50;0.30;;;8.80;99.90;;;;;;5075973;28;20278;-78
2023/04/22 04:37:15;;;;;;;0.50;0.40;;;8.80;99.90;;;;;;5076228;28;20771;-82
2023/04/22 04:39:42;;;;;;;0.50;0.40;;;8.80;99.90;;;;;;5075162;28;20253;-80
2023/04/22 04:42:11;;;;;;;0.50;0.40;;;8.80;99.90;;;;;;5075972;28;20198;-81
2023/04/22 04:44:37;;;;;;;0.50;0.40;;;8.90;99.90;;;;;;5075686;28;20281;-80
2023/04/22 04:47:05;;;;;;;0.50;0.40;;;8.90;99.90;;;;;;5075930;28;20200;-81
2023/04/22 04:49:38;;;;;;;0.50;0.40;;;8.90;99.90;;;;;;5076412;28;20650;-82
2023/04/22 04:52:06;;;;;;;0.50;0.40;;;8.90;99.90;;;;;;5060744;28;20225;-80
2023/04/22 04:54:33;;;;;;;0.50;0.40;;;9.00;99.90;;;;;;5076053;28;20224;-80
2023/04/22 04:57:00;;;;;;;0.50;0.35;;;9.00;99.90;;;;;;5075880;28;20213;-80
2023/04/22 04:59:27;;;;;;;0.50;0.40;;;9.10;99.90;;;;;;5075383;28;20317;-80
2023/04/22 05:01:54;;;;;;;0.50;0.40;;;9.10;99.90;;;;;;5074894;28;20298;-80
2023/04/22 05:04:21;;;;;;;0.50;0.40;;;9.10;99.90;;;;;;5078288;28;20202;-81
2023/04/22 05:06:50;;;;;;;0.50;0.40;;;9.10;99.90;;;;;;5074914;28;20201;-82
2023/04/22 05:09:17;;;;;;;0.50;0.40;;;9.10;99.90;;;;;;5075139;28;20214;-81
2023/04/22 05:11:43;;;;;;;0.50;0.40;;;9.20;99.90;;;;;;5075490;28;20285;-77
2023/04/22 05:14:10;;;;;;;0.50;0.40;;;9.20;99.90;;;;;;5075370;28;20202;-81
2023/04/22 05:16:37;;;;;;;0.50;0.40;;;9.30;99.90;;;;;;5074978;28;20515;-79
2023/04/22 05:19:04;;;;;;;0.50;0.40;;;9.30;99.90;;;;;;5074754;28;20221;-80
2023/04/22 05:21:31;;;;;;;0.50;0.40;;;9.30;99.90;;;;;;5074968;28;20704;-80
2023/04/22 05:24:00;;;;;;;0.50;0.40;;;9.40;99.90;;;;;;5074789;28;20202;-81
2023/04/22 05:26:27;;;;;;;0.50;0.40;;;9.40;99.90;;;;;;5074757;28;20241;-81
2023/04/22 05:28:54;;;;;;;0.50;0.40;;;9.50;99.90;;;;;;5074179;28;20697;-79
2023/04/22 05:31:20;;;;;;;0.50;0.40;;;9.60;99.90;;;;;;5074650;28;20289;-81
2023/04/22 05:33:47;;;;;;;0.50;0.40;;;9.60;99.90;;;;;;5074654;28;20292;-78
2023/04/22 05:36:14;;;;;;;0.50;0.30;;;9.70;99.90;;;;;;5075158;28;20216;-81
2023/04/22 05:38:41;;;;;;;0.50;0.30;;;9.80;99.90;;;;;;5075471;28;20214;-79
2023/04/22 05:41:09;;;;;;;0.50;0.40;;;9.90;99.90;;;;;;5075857;28;20200;-81
2023/04/22 05:43:36;;;;;;;0.50;0.40;;;9.90;99.90;;;;;;5074880;28;20257;-78
2023/04/22 05:46:03;;;;;;;0.50;0.50;;;10.00;99.90;;;;;;5074214;28;20198;-79
2023/04/22 05:48:30;;;;;;;0.50;0.40;;;10.10;99.90;;;;;;5075106;28;20201;-78
2023/04/22 05:50:56;;;;;;;0.50;0.40;;;10.20;99.90;;;;;;5074537;28;20220;-78
2023/04/22 05:53:23;;;;;;;0.50;0.40;;;10.30;99.90;;;;;;5074217;28;20190;-80
2023/04/22 05:55:50;;;;;;;0.50;0.38;;;10.30;99.90;;;;;;5074352;28;20198;-76
2023/04/22 05:58:18;;;;;;;0.70;0.70;;;10.30;99.90;;;;;;5074197;28;20210;-79
2023/04/22 06:00:45;;;;;;;0.65;0.63;;;10.40;99.90;;;;;;5075115;28;20305;-81
2023/04/22 06:03:12;;;;;;;0.50;0.40;;;10.40;99.90;;;;;;5074877;28;20293;-82
2023/04/22 06:05:39;;;;;;;0.50;0.38;;;10.50;99.90;;;;;;5074702;28;20285;-80
2023/04/22 06:08:06;;;;;;;0.50;0.40;;;10.50;99.90;;;;;;5074898;28;20665;-81
2023/04/22 06:10:33;;;;;;;0.50;0.40;;;10.60;99.90;;;;;;5074651;28;20650;-82
2023/04/22 06:13:00;;;;;;;0.50;0.30;;;10.70;99.90;;;;;;5074739;28;20849;-80
2023/04/22 06:15:28;;;;;;;0.50;0.40;;;10.80;99.90;;;;;;5074370;28;20597;-80
2023/04/22 06:17:55;;;;;;;0.50;0.40;;;11.00;99.90;;;;;;5073569;28;20479;-79
2023/04/22 06:20:22;;;;;;;0.50;0.40;;;11.10;99.90;;;;;;5074627;28;20248;-80
2023/04/22 06:22:48;;;;;;;0.50;0.40;;;11.20;99.90;;;;;;5074147;28;20194;-82
2023/04/22 06:25:15;;;;;;;0.50;0.40;;;11.40;99.90;;;;;;5074720;28;20614;-80
2023/04/22 06:27:42;;;;;;;0.50;0.40;;;11.50;99.90;;;;;;5073669;28;20196;-80
2023/04/22 06:30:10;;;;;;;0.50;0.40;;;11.60;99.90;;;;;;5074263;28;20286;-80
2023/04/22 06:32:39;;;;;;;0.50;0.40;;;11.70;99.90;;;;;;5074144;28;20472;-82
2023/04/22 06:35:07;;;;;;;0.50;0.40;;;11.70;99.90;;;;;;5074300;28;20280;-81
2023/04/22 06:37:33;;;;;;;0.50;0.40;;;11.80;99.90;;;;;;5073999;28;20218;-82
2023/04/22 06:40:00;;;;;;;0.50;0.40;;;11.90;99.90;;;;;;5073595;28;20308;-81
2023/04/22 06:42:27;;;;;;;0.50;0.40;;;12.00;99.90;;;;;;5076938;22;20226;-80
2023/04/22 06:44:54;;;;;;;0.80;0.80;;;12.30;99.90;;;;;;5076286;28;20304;-80
2023/04/22 06:47:21;;;;;;;0.50;0.40;;;12.80;99.90;;;;;;5085719;28;20522;-80
2023/04/22 06:49:49;;;;;;;0.50;0.37;;;13.60;99.90;;;;;;5084997;28;20808;-81
2023/04/22 06:52:16;;;;;;;1.80;0.83;;;14.80;99.90;;;;;;5082540;28;20542;-80
2023/04/22 06:54:42;;;;;;;0.50;0.40;;;15.60;99.90;;;;;;5082777;28;20448;-80
2023/04/22 06:57:09;;;;;;;0.50;0.30;;;15.90;99.90;;;;;;5086307;28;20938;-80
2023/04/22 06:59:36;;;;;;;0.50;0.30;;;16.40;99.90;;;;;;5086053;28;20507;-79
2023/04/22 07:02:03;;;;;;;0.80;0.80;;;17.50;99.90;;;;;;5083236;28;20528;-81
2023/04/22 07:04:30;;;;;;;0.50;0.30;;;19.20;99.90;;;;;;5082575;28;20437;-81
2023/04/22 07:06:58;;;;;;;0.50;0.30;;;20.20;99.90;;;;;;5082657;28;20440;-80
2023/04/22 07:09:27;;;;;;;0.60;0.60;;;21.20;99.90;;;;;;5082842;28;20523;-80
2023/04/22 07:11:56;;;;;;;0.70;0.70;;;22.10;99.90;;;;;;5090796;28;20993;-81
2023/04/22 07:14:25;;;;;;;0.50;0.37;;;22.40;96.60;;;;;;5082577;28;20467;-80
2023/04/22 07:16:51;;;;;;;1.73;1.23;;;22.30;97.60;;;;;;5083663;28;20515;-78
2023/04/22 07:19:18;;;;;;;0.50;0.40;;;23.20;96.10;;;;;;5081186;28;20478;-80
2023/04/22 07:21:45;;;;;;;0.50;0.40;;;24.00;92.80;;;;;;5082108;28;20558;-80
2023/04/22 07:24:14;;;;;;;0.50;0.40;;;24.20;90.20;;;;;;5082880;28;20472;-81
2023/04/22 07:26:42;;;;;;;0.50;0.30;;;24.40;90.20;;;;;;5081333;28;20436;-80
2023/04/22 07:29:10;;;;;;;0.50;0.40;;;25.00;87.30;;;;;;5074982;28;20436;-81
2023/04/22 07:31:37;;;;;;;0.50;0.30;;;25.00;83.20;;;;;;5077225;28;20443;-81
2023/04/22 07:34:03;;;;;;;0.50;0.40;;;24.60;80.80;;;;;;5086181;28;20539;-79
2023/04/22 07:36:31;;;;;;;1.23;1.13;;;24.40;81.30;;;;;;5086183;28;20940;-80
2023/04/22 07:38:58;;;;;;;0.97;0.40;;;23.30;79.40;;;;;;5085299;28;20994;-79
2023/04/22 07:41:26;;;;;;;0.50;0.30;;;23.20;80.70;;;;;;5083078;28;20813;-81
2023/04/22 07:43:54;;;;;;;0.50;0.40;;;23.30;84.00;;;;;;5087336;28;20467;-80
2023/04/22 07:46:21;;;;;;;0.70;0.40;;;23.70;81.40;;;;;;5085190;28;20553;-80
2023/04/22 07:48:48;;;;;;;0.50;0.40;;;23.60;79.70;;;;;;5085327;28;20436;-79
2023/04/22 07:51:15;;;;;;;0.50;0.30;;;23.20;80.70;;;;;;5089190;28;20534;-78
2023/04/22 07:53:41;;;;;;;0.50;0.40;;;22.00;82.60;;;;;;5080731;28;20467;-80
2023/04/22 07:56:08;;;;;;;1.17;1.07;;;21.70;83.40;;;;;;5088609;28;20450;-80
2023/04/22 07:58:37;;;;;;;0.50;0.40;;;22.30;84.20;;;;;;5088317;28;20549;-79
2023/04/22 08:01:04;;;;;;;0.50;0.40;;;22.80;85.00;;;;;;5087059;28;20461;-79
2023/04/22 08:03:30;;;;;;;0.50;0.30;;;23.20;83.80;;;;;;5085637;28;20847;-80
2023/04/22 08:05:58;;;;;;;0.50;0.30;;;23.10;81.00;;;;;;5086820;28;20454;-81
2023/04/22 08:08:25;;;;;;;0.80;0.40;;;23.30;80.50;;;;;;5088512;28;20431;-79
2023/04/22 08:10:52;;;;;;;0.50;0.40;;;23.10;80.10;;;;;;5087494;28;20472;-81
2023/04/22 08:13:19;;;;;;;0.50;0.30;;;22.90;80.20;;;;;;5081807;28;20538;-80
2023/04/22 08:15:47;;;;;;;0.50;0.30;;;23.20;83.00;;;;;;5088711;28;20474;-81
2023/04/22 08:18:14;;;;;;;0.70;0.40;;;23.80;80.20;;;;;;5076940;28;20475;-79
2023/04/22 08:20:40;;;;;;;1.10;0.70;;;23.80;76.60;;;;;;5084847;28;20823;-81
2023/04/22 08:23:07;;;;;;;0.50;0.40;;;23.60;78.20;;;;;;5087733;28;20463;-80
2023/04/22 08:25:35;;;;;;;0.50;0.40;;;23.50;77.30;;;;;;5088334;28;20442;-80
2023/04/22 08:28:02;;;;;;;0.50;0.40;;;23.80;78.30;;;;;;5086320;28;20431;-79
2023/04/22 08:30:29;;;;;;;0.60;0.40;;;23.40;77.10;;;;;;5084724;28;20526;-79
2023/04/22 08:32:57;;;;;;;0.50;0.40;;;23.50;76.30;;;;;;5085503;28;20908;-81
2023/04/22 08:35:24;;;;;;;0.50;0.30;;;23.30;77.30;;;;;;5083337;28;20554;-81
2023/04/22 08:37:51;;;;;;;0.90;0.60;;;23.90;79.40;;;;;;5084825;28;20522;-79
2023/04/22 08:40:17;;;;;;;0.60;0.57;;;24.50;74.40;;;;;;5087673;28;20447;-80
2023/04/22 08:42:44;;;;;;;0.60;0.50;;;23.90;74.00;;;;;;5087673;28;20454;-80
2023/04/22 08:45:13;;;;;;;0.73;0.70;;;23.60;74.80;;;;;;5085070;28;20461;-81
2023/04/22 08:47:41;;;;;;;0.83;0.83;;;23.40;75.20;;;;;;5083157;28;20435;-79
2023/04/22 08:50:10;;;;;;;0.50;0.40;;;23.60;75.20;;;;;;5085044;28;20447;-81
2023/04/22 08:52:37;;;;;;;0.50;0.50;;;23.50;74.50;;;;;;5084004;28;20467;-80
2023/04/22 08:55:05;;;;;;;0.50;0.40;;;23.40;73.50;;;;;;5085755;28;20437;-80
2023/04/22 08:57:32;;;;;;;9.23;0.70;;;23.50;74.60;;;;;;5087516;28;20535;-79
2023/04/22 09:00:00;;;;;;;1.10;1.03;;;23.20;74.20;;;;;;5086158;28;20876;-80
2023/04/22 09:02:28;;;;;;;0.50;0.40;;;22.50;74.80;;;;;;5084013;28;20468;-80
2023/04/22 09:04:56;;;;;;;0.50;0.30;;;22.20;76.40;;;;;;5084704;28;21023;-81
2023/04/22 09:07:26;;;;;;;0.50;0.30;;;22.40;77.60;;;;;;5087696;28;20445;-80
2023/04/22 09:09:54;;;;;;;0.60;0.40;;;23.00;76.60;;;;;;5087360;28;20934;-80
2023/04/22 09:12:21;;;;;;;0.67;0.50;;;23.40;74.90;;;;;;5081441;28;20826;-78
2023/04/22 09:14:48;;;;;;;0.53;0.43;;;23.40;73.70;;;;;;5088241;28;20526;-79
2023/04/22 09:17:17;;;;;;;0.60;0.40;;;23.40;74.10;;;;;;5083985;28;20531;-81
2023/04/22 09:19:44;;;;;;;1.80;0.40;;;23.40;73.60;;;;;;5084805;28;20919;-81
2023/04/22 09:22:13;;;;;;;1.30;1.07;;;23.60;74.40;;;;;;5089009;28;20520;-80
2023/04/22 09:24:48;;;;;;;0.50;0.40;;;23.90;73.50;;;;;;5087366;28;20446;-81
2023/04/22 09:27:16;;;;;;;0.73;0.50;;;24.50;72.20;;;;;;5084277;28;20444;-81
2023/04/22 09:29:48;;;;;;;0.50;0.40;;;24.70;71.70;;;;;;5083629;28;20440;-80
2023/04/22 09:32:15;;;;;;;0.60;0.60;;;24.10;71.40;;;;;;5087720;28;20459;-79
2023/04/22 09:34:51;;;;;;;0.50;0.40;;;23.60;71.10;;;;;;5088155;28;20511;-81
2023/04/22 09:37:24;;;;;;;0.90;0.73;;;23.80;73.10;;;;;;5071699;28;20525;-80
2023/04/22 09:39:54;;;;;;;0.83;0.67;;;23.10;72.00;;;;;;5087378;28;21005;-80
2023/04/22 09:42:22;;;;;;;0.80;0.60;;;23.50;72.10;;;;;;5076969;28;20575;-81
2023/04/22 09:44:51;;;;;;;1.00;0.50;;;23.60;71.20;;;;;;5084514;28;20496;-81
2023/04/22 09:47:18;;;;;;;0.80;0.67;;;24.00;73.20;;;;;;5083384;28;20431;-80
2023/04/22 09:49:46;;;;;;;0.50;0.40;;;24.70;72.00;;;;;;5083765;28;20436;-81
2023/04/22 09:52:23;;;;;;;0.97;0.87;;;25.40;70.20;;;;;;5085611;28;21067;-81
2023/04/22 09:54:51;;;;;;;0.50;0.30;;;26.00;67.90;;;;;;5087094;28;20439;-81
2023/04/22 09:57:20;;;;;;;0.50;0.30;;;26.20;66.30;;;;;;5087812;28;20451;-81
2023/04/22 09:59:49;;;;;;;0.50;0.40;;;26.30;68.20;;;;;;5086327;28;20478;-81
2023/04/22 10:02:18;;;;;;;0.50;0.30;;;26.30;66.80;;;;;;5083545;28;20488;-80
2023/04/22 10:04:46;;;;;;;0.70;0.57;;;26.10;66.40;;;;;;5084091;28;20595;-80
2023/04/22 10:07:14;;;;;;;0.50;0.30;;;26.10;65.90;;;;;;5086213;28;20649;-81
2023/04/22 10:09:41;;;;;;;0.60;0.40;;;25.20;67.40;;;;;;5087084;28;20504;-80
2023/04/22 10:12:08;;;;;;;0.50;0.30;;;24.70;68.30;;;;;;5084398;28;20978;-80
2023/04/22 10:14:36;;;;;;;0.50;0.30;;;25.00;69.30;;;;;;5082566;28;20440;-80
2023/04/22 10:17:03;;;;;;;50.80;1.87;;;25.70;67.60;;;;;;5083797;28;20536;-80
2023/04/22 10:19:32;;;;;;;0.50;0.30;;;25.60;66.40;;;;;;5086046;28;20507;-80
2023/04/22 10:22:02;;;;;;;0.50;0.40;;;24.50;68.60;;;;;;5085592;28;20515;-79
2023/04/22 10:24:34;;;;;;;0.50;0.30;;;24.30;69.50;;;;;;5082997;28;20470;-80
2023/04/22 10:27:05;;;;;;;0.50;0.30;;;24.10;70.60;;;;;;5082926;28;20444;-79
2023/04/22 10:29:38;;;;;;;1.00;0.87;;;24.60;71.20;;;;;;5086240;28;20530;-81
2023/04/22 10:32:06;;;;;;;0.50;0.30;;;25.90;70.80;;;;;;5084490;28;20546;-80
2023/04/22 10:34:36;;;;;;;0.70;0.50;;;26.70;68.50;;;;;;5082665;28;20472;-80
2023/04/22 10:37:06;;;;;;;3.67;1.07;;;27.00;66.20;;;;;;5083127;28;20814;-80
2023/04/22 10:39:33;;;;;;;0.50;0.50;;;27.50;67.40;;;;;;5089908;28;20518;-79
2023/04/22 10:42:08;;;;;;;0.70;0.50;;;27.80;63.30;;;;;;5101807;28;20483;-79
2023/04/22 10:45:00;;;;;;;0.50;0.40;;;27.00;63.20;;;;;;5096786;28;20511;-80
2023/04/22 10:47:29;;;;;;;1.73;1.43;;;27.60;63.20;;;;;;5088931;28;20543;-79
2023/04/22 10:50:23;;;;;;;1.90;0.90;;;27.00;63.10;;;;;;5085031;28;20435;-80
2023/04/22 10:52:52;;;;;;;1.17;0.70;;;26.30;64.90;;;;;;5077920;28;20982;-79
2023/04/22 10:55:20;;;;;;;0.80;0.80;;;26.20;65.40;;;;;;5085190;28;20463;-80
2023/04/22 10:57:48;;;;;;;0.80;0.80;;;27.20;65.40;;;;;;5085489;28;20441;-80
2023/04/22 11:00:51;;;;;;;3.60;1.50;;;27.20;63.30;;;;;;5082535;28;20561;-80
2023/04/22 11:03:19;;;;;;;0.50;0.40;;;26.60;65.20;;;;;;5081718;28;20914;-80
2023/04/22 11:05:46;;;;;;;1.20;0.70;;;26.00;66.40;;;;;;5081685;28;20444;-80
2023/04/22 11:08:19;;;;;;;0.60;0.50;;;25.50;67.10;;;;;;5083584;28;20490;-79
2023/04/22 11:10:47;;;;;;;0.50;0.40;;;25.40;67.90;;;;;;5085210;28;20431;-80
2023/04/22 11:13:15;;;;;;;1.10;0.70;;;25.10;68.40;;;;;;5083196;28;20455;-80
2023/04/22 11:15:44;;;;;;;0.60;0.53;;;25.40;68.80;;;;;;5081270;28;20454;-80
2023/04/22 11:18:14;;;;;;;0.50;0.33;;;26.00;69.10;;;;;;5083676;28;20543;-79
2023/04/22 11:20:42;;;;;;;0.73;0.60;;;27.00;67.50;;;;;;5085348;28;20470;-79
2023/04/22 11:23:09;;;;;;;0.50;0.40;;;27.00;63.80;;;;;;5077142;28;20495;-79
2023/04/22 11:25:36;;;;;;;1.07;0.87;;;25.90;64.80;;;;;;5088608;28;20511;-78
2023/04/22 11:28:03;;;;;;;0.90;0.80;;;25.20;67.80;;;;;;5081558;28;20454;-79
2023/04/22 11:30:31;;;;;;;0.70;0.70;;;26.10;68.60;;;;;;5083959;28;20435;-80
2023/04/22 11:33:00;;;;;;;1.90;0.63;;;26.80;65.10;;;;;;5083926;28;20465;-78
2023/04/22 11:35:30;;;;;;;0.50;0.40;;;26.80;64.90;;;;;;5072818;28;20432;-79
2023/04/22 11:37:59;;;;;;;0.60;0.50;;;26.70;66.40;;;;;;5081082;28;20459;-81
2023/04/22 11:40:28;;;;;;;2.83;1.07;;;26.20;65.30;;;;;;5073627;28;20526;-81
2023/04/22 11:42:56;;;;;;;1.17;1.07;;;25.50;68.10;;;;;;5082085;28;20468;-80
2023/04/22 11:45:23;;;;;;;1.47;1.10;;;25.50;68.10;;;;;;5085359;28;20496;-79
2023/04/22 11:47:51;;;;;;;1.27;0.67;;;25.10;68.10;;;;;;5084760;28;20806;-80
2023/04/22 11:50:21;;;;;;;2.80;1.23;;;24.30;69.50;;;;;;5082595;28;20447;-79
2023/04/22 11:52:51;;;;;;;0.60;0.50;;;23.40;70.20;;;;;;5081302;28;20471;-79
2023/04/22 11:55:21;;;;;;;2.00;1.30;;;23.00;71.60;;;;;;5083970;28;20454;-79
2023/04/22 11:57:57;;;;;;;1.27;1.07;;;22.70;73.10;;;;;;5085041;28;20526;-80
2023/04/22 12:00:28;;;;;;;0.53;0.40;;;22.00;74.00;;;;;;5081471;28;20548;-80
2023/04/22 12:02:56;;;;;;;1.27;0.97;;;22.00;75.80;;;;;;5081404;28;20470;-80
2023/04/22 12:05:33;;;;;;;4.00;0.80;;;22.00;76.20;;;;;;5084201;28;20914;-80
2023/04/22 12:08:02;;;;;;;1.17;1.10;;;22.30;77.60;;;;;;5084543;28;20513;-80
2023/04/22 12:10:29;;;;;;;1.43;1.03;;;22.80;75.40;;;;;;5073757;28;20486;-78
2023/04/22 12:12:56;;;;;;;0.50;0.50;;;23.10;74.30;;;;;;5080872;28;20456;-80
2023/04/22 12:15:23;;;;;;;0.83;0.80;;;23.20;74.30;;;;;;5085026;28;20437;-79
2023/04/22 12:17:51;;;;;;;0.80;0.80;;;22.80;75.20;;;;;;5088270;28;20522;-81
2023/04/22 12:20:18;;;;;;;0.50;0.30;;;23.30;75.80;;;;;;5086279;28;20494;-80
2023/04/22 12:22:45;;;;;;;1.53;1.07;;;23.50;73.90;;;;;;5084949;28;20459;-80
2023/04/22 12:25:18;;;;;;;0.50;0.30;;;23.20;74.80;;;;;;5085862;28;20445;-80
2023/04/22 12:27:45;;;;;;;0.90;0.67;;;23.00;75.20;;;;;;5087863;28;20976;-80
2023/04/22 12:30:13;;;;;;;1.43;1.33;;;22.60;75.10;;;;;;5086326;28;20445;-78
2023/04/22 12:32:40;;;;;;;1.30;1.17;;;22.80;76.80;;;;;;5084755;28;20980;-80
2023/04/22 12:35:08;;;;;;;1.67;0.70;;;23.20;74.70;;;;;;5085499;28;20440;-80
2023/04/22 12:37:35;;;;;;;0.60;0.60;;;23.10;74.90;;;;;;5088031;28;20860;-79
2023/04/22 12:40:03;;;;;;;1.03;0.80;;;22.70;75.10;;;;;;5087585;28;21000;-80
2023/04/22 12:45:00;;;;;;;0.50;0.30;;;22.00;78.00;;;;;;5099374;22;20477;-80
2023/04/22 12:47:27;;;;;;;0.50;0.30;;;22.50;77.70;;;;;;5044424;28;20481;-80
2023/04/22 12:49:54;;;;;;;0.60;0.50;;;23.80;79.10;;;;;;5053548;28;20434;-79
2023/04/22 12:52:21;;;;;;;0.73;0.73;;;24.90;74.50;;;;;;5055247;28;20448;-81
2023/04/22 12:54:48;;;;;;;0.60;0.60;;;24.60;72.30;;;;;;5063697;28;20507;-80
2023/04/22 12:57:15;;;;;;;0.50;0.33;;;24.70;72.50;;;;;;5063435;28;20525;-81